Jock — WDF2423 — position and weather

sailwx.info

Track history (hours):
 
Tides and Currents Weather Stations Pressure Air Temp Water Temp Dewpoint Dewpoint Depression Visibility Wind Speed Wind Dir Waves Ship Positions

Jock

Owner: Enterprise Marine Services, LLC, San Antonio, TX. More information available from US FCC via Universal Licensing System and Coast Guard Vessel Documentation Center.

Last reported at 2016-Nov-10 18:32 UTC. Time now 2016-Dec-05 20:38 UTC.
Position N 29°34' W 090°34'.
Warning: this ship's position is 25 days out of date.

Length 28 m; draft 3 m.

Type: Other ship. MMSI: 367003460.

Date/timePositionNaut miles runAvg speedWind from/ knotsBaromVisibWave heightAir tempDewpointWater temp
2016-Nov-10 18:32N 29°34' W 090°34'7 3.7
2016-Nov-10 16:33N 29°36' W 090°43'2 1.9
2016-Nov-10 15:33N 29°34' W 090°43'0 0.1
2016-Nov-10 11:33N 29°34' W 090°43'0 0.0
2016-Nov-10 10:33N 29°34' W 090°43'0 0.0
2016-Nov-10 09:33N 29°34' W 090°43'0 0.0
2016-Nov-10 08:33N 29°34' W 090°43'0 0.0
2016-Nov-10 07:33N 29°34' W 090°43'0 0.0
2016-Nov-10 06:33N 29°34' W 090°43'0 0.0
2016-Nov-10 05:33N 29°34' W 090°43'0 0.0
2016-Nov-10 04:33N 29°34' W 090°43'0 0.0
2016-Nov-10 00:33N 29°34' W 090°43'0 0.0
2016-Nov-09 22:33N 29°34' W 090°43'1 0.4
2016-Nov-09 20:37N 29°34' W 090°42'1 1.0
2016-Nov-09 19:52N 29°34' W 090°43'0 0.0
2016-Nov-09 19:06N 29°34' W 090°43'0 0.2
2016-Nov-09 18:33N 29°34' W 090°43'0 0.1
2016-Nov-09 17:33N 29°34' W 090°43'0 0.0
2016-Nov-09 15:33N 29°34' W 090°43'0 0.0
2016-Nov-09 13:33N 29°34' W 090°43'0 0.0
2016-Nov-09 08:33N 29°34' W 090°43'0 0.0
2016-Nov-09 07:33N 29°34' W 090°43'0 0.0
2016-Nov-09 05:33N 29°34' W 090°43'0 0.0
2016-Nov-09 04:33N 29°34' W 090°43'0 0.0
2016-Nov-09 02:33N 29°34' W 090°43'0 0.1
2016-Nov-08 23:33N 29°34' W 090°43'0 0.0
2016-Nov-08 22:33N 29°34' W 090°43'0 0.1
2016-Nov-08 21:33N 29°34' W 090°43'0 0.2
2016-Nov-08 20:33N 29°34' W 090°43'0 0.0
2016-Nov-08 19:33N 29°34' W 090°43'0 0.2
2016-Nov-08 18:33N 29°34' W 090°43'0 0.4
2016-Nov-08 17:33N 29°34' W 090°43'0 0.2
2016-Nov-08 15:33N 29°34' W 090°43'0 0.0
2016-Nov-08 09:33N 29°34' W 090°43'0 0.0
2016-Nov-08 06:33N 29°34' W 090°43'0 0.0
2016-Nov-08 04:33N 29°34' W 090°43'0 0.0
2016-Nov-08 00:33N 29°34' W 090°43'0 0.0
2016-Nov-07 23:33N 29°34' W 090°43'0 0.0
2016-Nov-07 19:33N 29°34' W 090°43'0 0.0
2016-Nov-07 17:33N 29°34' W 090°43'0 0.0
2016-Nov-07 16:33N 29°34' W 090°43'0 0.1
2016-Nov-07 15:33N 29°34' W 090°43'0 0.1
2016-Nov-07 14:33N 29°34' W 090°43'0 0.3
2016-Nov-07 13:33N 29°34' W 090°43'0 0.0
2016-Nov-07 09:33N 29°34' W 090°43'0 0.0
2016-Nov-07 08:33N 29°34' W 090°43'0 0.0
2016-Nov-07 07:33N 29°34' W 090°43'0 0.0
2016-Nov-07 06:33N 29°34' W 090°43'0 0.0
2016-Nov-07 05:33N 29°34' W 090°43'1 0.2
2016-Nov-07 02:33N 29°34' W 090°43'5 4.7
2016-Nov-07 01:33N 29°32' W 090°48'58 4.4
2016-Nov-06 12:24N 29°51' W 091°51'5 5.4
2016-Nov-06 11:30N 29°51' W 091°57'5 5.5
2016-Nov-06 10:33N 29°49' W 092°02'9 4.4
2016-Nov-06 08:33N 29°47' W 092°12'1 0.7
2016-Nov-06 07:33N 29°47' W 092°13'57 3.8
2016-Nov-05 16:33N 30°04' W 093°16'13 3.1
2016-Nov-05 12:31N 30°04' W 093°31'  
2016-Nov-01 23:33N 29°34' W 090°44'1 0.2
2016-Nov-01 20:33N 29°34' W 090°43'0 0.0
2016-Nov-01 19:33N 29°34' W 090°43'0 0.0
2016-Nov-01 12:33N 29°34' W 090°43'0 0.0
2016-Nov-01 03:33N 29°34' W 090°43'0 0.0
2016-Nov-01 02:33N 29°34' W 090°43'0 0.0
2016-Nov-01 00:33N 29°34' W 090°43'0 0.0
2016-Oct-31 23:33N 29°34' W 090°43'0 0.1
2016-Oct-31 22:33N 29°34' W 090°43'0 0.1
2016-Oct-31 20:33N 29°34' W 090°43'0 0.0
2016-Oct-31 19:33N 29°34' W 090°43'0 0.0
2016-Oct-31 18:33N 29°34' W 090°43'  
Track history (hours):
 
Tides and Currents Weather Stations Pressure Air Temp Water Temp Dewpoint Dewpoint Depression Visibility Wind Speed Wind Dir Waves Ship Positions

Jock

Owner: Enterprise Marine Services, LLC, San Antonio, TX. More information available from US FCC via Universal Licensing System and Coast Guard Vessel Documentation Center.

Last reported at 2016-Nov-10 18:32 UTC. Time now 2016-Dec-05 20:38 UTC.
Position N 29°34' W 090°34'.
Warning: this ship's position is 25 days out of date.

Length 28 m; draft 3 m.

Type: Other ship. MMSI: 367003460.

Date/timePositionNaut miles runAvg speedWind from/ knotsBaromVisibWave heightAir tempDewpointWater temp
2016-Nov-10 18:32N 29°34' W 090°34'7 3.7
2016-Nov-10 16:33N 29°36' W 090°43'2 1.9
2016-Nov-10 15:33N 29°34' W 090°43'0 0.1
2016-Nov-10 11:33N 29°34' W 090°43'0 0.0
2016-Nov-10 10:33N 29°34' W 090°43'0 0.0
2016-Nov-10 09:33N 29°34' W 090°43'0 0.0
2016-Nov-10 08:33N 29°34' W 090°43'0 0.0
2016-Nov-10 07:33N 29°34' W 090°43'0 0.0
2016-Nov-10 06:33N 29°34' W 090°43'0 0.0
2016-Nov-10 05:33N 29°34' W 090°43'0 0.0
2016-Nov-10 04:33N 29°34' W 090°43'0 0.0
2016-Nov-10 00:33N 29°34' W 090°43'0 0.0
2016-Nov-09 22:33N 29°34' W 090°43'1 0.4
2016-Nov-09 20:37N 29°34' W 090°42'1 1.0
2016-Nov-09 19:52N 29°34' W 090°43'0 0.0
2016-Nov-09 19:06N 29°34' W 090°43'0 0.2
2016-Nov-09 18:33N 29°34' W 090°43'0 0.1
2016-Nov-09 17:33N 29°34' W 090°43'0 0.0
2016-Nov-09 15:33N 29°34' W 090°43'0 0.0
2016-Nov-09 13:33N 29°34' W 090°43'0 0.0
2016-Nov-09 08:33N 29°34' W 090°43'0 0.0
2016-Nov-09 07:33N 29°34' W 090°43'0 0.0
2016-Nov-09 05:33N 29°34' W 090°43'0 0.0
2016-Nov-09 04:33N 29°34' W 090°43'0 0.0
2016-Nov-09 02:33N 29°34' W 090°43'0 0.1
2016-Nov-08 23:33N 29°34' W 090°43'0 0.0
2016-Nov-08 22:33N 29°34' W 090°43'0 0.1
2016-Nov-08 21:33N 29°34' W 090°43'0 0.2
2016-Nov-08 20:33N 29°34' W 090°43'0 0.0
2016-Nov-08 19:33N 29°34' W 090°43'0 0.2
2016-Nov-08 18:33N 29°34' W 090°43'0 0.4
2016-Nov-08 17:33N 29°34' W 090°43'0 0.2
2016-Nov-08 15:33N 29°34' W 090°43'0 0.0
2016-Nov-08 09:33N 29°34' W 090°43'0 0.0
2016-Nov-08 06:33N 29°34' W 090°43'0 0.0
2016-Nov-08 04:33N 29°34' W 090°43'0 0.0
2016-Nov-08 00:33N 29°34' W 090°43'0 0.0
2016-Nov-07 23:33N 29°34' W 090°43'0 0.0
2016-Nov-07 19:33N 29°34' W 090°43'0 0.0
2016-Nov-07 17:33N 29°34' W 090°43'0 0.0
2016-Nov-07 16:33N 29°34' W 090°43'0 0.1
2016-Nov-07 15:33N 29°34' W 090°43'0 0.1
2016-Nov-07 14:33N 29°34' W 090°43'0 0.3
2016-Nov-07 13:33N 29°34' W 090°43'0 0.0
2016-Nov-07 09:33N 29°34' W 090°43'0 0.0
2016-Nov-07 08:33N 29°34' W 090°43'0 0.0
2016-Nov-07 07:33N 29°34' W 090°43'0 0.0
2016-Nov-07 06:33N 29°34' W 090°43'0 0.0
2016-Nov-07 05:33N 29°34' W 090°43'1 0.2
2016-Nov-07 02:33N 29°34' W 090°43'5 4.7
2016-Nov-07 01:33N 29°32' W 090°48'58 4.4
2016-Nov-06 12:24N 29°51' W 091°51'5 5.4
2016-Nov-06 11:30N 29°51' W 091°57'5 5.5
2016-Nov-06 10:33N 29°49' W 092°02'9 4.4
2016-Nov-06 08:33N 29°47' W 092°12'1 0.7
2016-Nov-06 07:33N 29°47' W 092°13'57 3.8
2016-Nov-05 16:33N 30°04' W 093°16'13 3.1
2016-Nov-05 12:31N 30°04' W 093°31'  
2016-Nov-01 23:33N 29°34' W 090°44'1 0.2
2016-Nov-01 20:33N 29°34' W 090°43'0 0.0
2016-Nov-01 19:33N 29°34' W 090°43'0 0.0
2016-Nov-01 12:33N 29°34' W 090°43'0 0.0
2016-Nov-01 03:33N 29°34' W 090°43'0 0.0
2016-Nov-01 02:33N 29°34' W 090°43'0 0.0
2016-Nov-01 00:33N 29°34' W 090°43'0 0.0
2016-Oct-31 23:33N 29°34' W 090°43'0 0.1
2016-Oct-31 22:33N 29°34' W 090°43'0 0.1
2016-Oct-31 20:33N 29°34' W 090°43'0 0.0
2016-Oct-31 19:33N 29°34' W 090°43'0 0.0
2016-Oct-31 18:33N 29°34' W 090°43'  

Dump ship's entire track history